Terminal Aerodrome Forecast
Issued by NWS

Current Version | Previous Version | Text Only | Print | Product List | Glossary Off
Versions: 1 2 3 4 5 6 7 8 9 10 11 12 13 14

245
FTUS41 KPBZ 151722
TAFMGW
TAF
KMGW 151722Z 1518/1618 24007KT P6SM SCT025 BKN040
      TEMPO 1518/1520 BKN025 BKN040
     FM152300 25010KT P6SM VCSH BKN045
     FM160300 25011G27KT P6SM BKN040
     FM160700 26009KT P6SM BKN035=

USA.gov is the U.S. government's official web portal to all federal, state and local government web resources and services.